Eurocargo Valencia — IBGZ — position and weather

sailwx.info

Track history (hours):
 
Tides and Currents Weather Stations Pressure Air Temp Water Temp Dewpoint Dewpoint Depression Visibility Wind Speed Wind Dir Waves Ship Positions

Eurocargo Valencia

Last reported at 2017-Mar-26 09:05 UTC. Time now 2017-Mar-26 11:10 UTC.
Position N 37°29' E 015°06'.

Length 196 m; draft 7.2 m.

Type: Cargo ship. MMSI: 247579000.

Date/timePositionNaut miles runAvg speedWind from/ knotsBaromVisibWave heightAir tempDewpointWater temp
2017-Mar-26 09:05N 37°29' E 015°06'4 6.3
2017-Mar-26 08:29N 37°29' E 015°11'1616.9
2017-Mar-26 07:33N 37°43' E 015°20'1716.5
2017-Mar-26 06:33N 37°58' E 015°29'1616.4
2017-Mar-26 05:34N 38°13' E 015°36'1211.7
2017-Mar-26 04:33N 38°25' E 015°37'1413.8
2017-Mar-26 03:34N 38°38' E 015°32'1616.2
2017-Mar-26 02:34N 38°53' E 015°24'1716.4
2017-Mar-26 01:31N 39°09' E 015°18'92 2.6
2017-Mar-24 14:33N 40°37' E 014°43'4 3.7
2017-Mar-24 13:29N 40°33' E 014°43'1414.2
2017-Mar-24 12:32N 40°20' E 014°44'1514.9
2017-Mar-24 11:32N 40°05' E 014°49'1515.0
2017-Mar-24 10:31N 39°51' E 014°56'1515.1
2017-Mar-24 09:32N 39°37' E 015°03'1714.9
2017-Mar-24 08:22N 39°21' E 015°12'1315.2
2017-Mar-24 07:30N 39°08' E 015°17'1515.1
2017-Mar-24 06:32N 38°55' E 015°24'1515.0
2017-Mar-24 05:33N 38°41' E 015°31'1515.2
2017-Mar-24 04:33N 38°27' E 015°38'1313.0
2017-Mar-24 03:34N 38°14' E 015°37'1616.4
2017-Mar-24 02:33N 37°59' E 015°30'1817.6
2017-Mar-24 01:34N 37°43' E 015°20'1817.6
2017-Mar-24 00:33N 37°27' E 015°09'3 0.3
2017-Mar-23 14:32N 37°29' E 015°06'1111.0
2017-Mar-23 13:33N 37°36' E 015°16'1717.0
2017-Mar-23 12:33N 37°51' E 015°26'1818.1
2017-Mar-23 11:34N 38°08' E 015°36'1616.0
2017-Mar-23 10:33N 38°24' E 015°38'1717.4
2017-Mar-23 09:33N 38°40' E 015°30'1817.5
2017-Mar-23 08:33N 38°56' E 015°22'12 0.4
2017-Mar-22 03:27N 39°08' E 015°17'1516.5
2017-Mar-22 02:33N 38°54' E 015°25'1616.5
2017-Mar-22 01:33N 38°39' E 015°33'1716.7
2017-Mar-22 00:33N 38°23' E 015°40'1414.0
2017-Mar-21 23:33N 38°09' E 015°36'1615.5
2017-Mar-21 22:34N 37°55' E 015°28'1716.5
2017-Mar-21 21:33N 37°41' E 015°18'1515.4
2017-Mar-21 20:32N 37°28' E 015°07'2 0.3
2017-Mar-21 11:26N 37°30' E 015°06'0 0.0
2017-Mar-21 10:13N 37°30' E 015°06'4 6.2
2017-Mar-21 09:32N 37°29' E 015°11'1616.3
2017-Mar-21 08:34N 37°43' E 015°20'1616.2
2017-Mar-21 07:33N 37°58' E 015°29'1717.3
2017-Mar-21 06:34N 38°14' E 015°36'1414.1
2017-Mar-21 05:33N 38°28' E 015°36'1716.4
2017-Mar-21 04:33N 38°44' E 015°28'1716.6
2017-Mar-21 03:32N 38°59' E 015°21'14 0.3
2017-Mar-19 05:12N 39°13' E 015°16'1116.6
2017-Mar-19 04:32N 39°02' E 015°21'1616.5
2017-Mar-19 03:33N 38°47' E 015°28'1716.8
2017-Mar-19 02:33N 38°32' E 015°36'1616.1
2017-Mar-19 01:33N 38°16' E 015°41'1514.7
2017-Mar-19 00:34N 38°03' E 015°33'1716.7
2017-Mar-18 23:33N 37°48' E 015°23'1716.9
2017-Mar-18 22:33N 37°33' E 015°13'7 1.0
2017-Mar-18 15:33N 37°30' E 015°06'0 0.2
2017-Mar-18 14:32N 37°29' E 015°06'0 0.0
2017-Mar-18 13:32N 37°29' E 015°06'3 1.2
2017-Mar-18 10:32N 37°29' E 015°10'1616.3
2017-Mar-18 09:34N 37°43' E 015°19'1616.5
2017-Mar-18 08:33N 37°58' E 015°28'1717.0
2017-Mar-18 07:33N 38°14' E 015°36'1514.7
2017-Mar-18 06:33N 38°28' E 015°36'1616.5
2017-Mar-18 05:33N 38°44' E 015°28'1716.7
2017-Mar-18 04:31N 38°60' E 015°21'19 0.9
2017-Mar-17 07:12N 39°18' E 015°13'1218.2
2017-Mar-17 06:33N 39°07' E 015°18'1818.2
2017-Mar-17 05:33N 38°50' E 015°27'1818.0
2017-Mar-17 04:34N 38°34' E 015°36'1717.0
2017-Mar-17 03:33N 38°18' E 015°42'1616.1
2017-Mar-17 02:34N 38°03' E 015°33'1818.2
2017-Mar-17 01:33N 37°47' E 015°22'1817.5
2017-Mar-17 00:31N 37°31' E 015°12'3 0.2
2017-Mar-16 11:26N 37°29' E 015°10'1516.6
2017-Mar-16 10:34N 37°41' E 015°19'1616.4
2017-Mar-16 09:33N 37°56' E 015°27'  
Track history (hours):
 
Tides and Currents Weather Stations Pressure Air Temp Water Temp Dewpoint Dewpoint Depression Visibility Wind Speed Wind Dir Waves Ship Positions

Eurocargo Valencia

Last reported at 2017-Mar-26 09:05 UTC. Time now 2017-Mar-26 11:10 UTC.
Position N 37°29' E 015°06'.

Length 196 m; draft 7.2 m.

Type: Cargo ship. MMSI: 247579000.

Date/timePositionNaut miles runAvg speedWind from/ knotsBaromVisibWave heightAir tempDewpointWater temp
2017-Mar-26 09:05N 37°29' E 015°06'4 6.3
2017-Mar-26 08:29N 37°29' E 015°11'1616.9
2017-Mar-26 07:33N 37°43' E 015°20'1716.5
2017-Mar-26 06:33N 37°58' E 015°29'1616.4
2017-Mar-26 05:34N 38°13' E 015°36'1211.7
2017-Mar-26 04:33N 38°25' E 015°37'1413.8
2017-Mar-26 03:34N 38°38' E 015°32'1616.2
2017-Mar-26 02:34N 38°53' E 015°24'1716.4
2017-Mar-26 01:31N 39°09' E 015°18'92 2.6
2017-Mar-24 14:33N 40°37' E 014°43'4 3.7
2017-Mar-24 13:29N 40°33' E 014°43'1414.2
2017-Mar-24 12:32N 40°20' E 014°44'1514.9
2017-Mar-24 11:32N 40°05' E 014°49'1515.0
2017-Mar-24 10:31N 39°51' E 014°56'1515.1
2017-Mar-24 09:32N 39°37' E 015°03'1714.9
2017-Mar-24 08:22N 39°21' E 015°12'1315.2
2017-Mar-24 07:30N 39°08' E 015°17'1515.1
2017-Mar-24 06:32N 38°55' E 015°24'1515.0
2017-Mar-24 05:33N 38°41' E 015°31'1515.2
2017-Mar-24 04:33N 38°27' E 015°38'1313.0
2017-Mar-24 03:34N 38°14' E 015°37'1616.4
2017-Mar-24 02:33N 37°59' E 015°30'1817.6
2017-Mar-24 01:34N 37°43' E 015°20'1817.6
2017-Mar-24 00:33N 37°27' E 015°09'3 0.3
2017-Mar-23 14:32N 37°29' E 015°06'1111.0
2017-Mar-23 13:33N 37°36' E 015°16'1717.0
2017-Mar-23 12:33N 37°51' E 015°26'1818.1
2017-Mar-23 11:34N 38°08' E 015°36'1616.0
2017-Mar-23 10:33N 38°24' E 015°38'1717.4
2017-Mar-23 09:33N 38°40' E 015°30'1817.5
2017-Mar-23 08:33N 38°56' E 015°22'12 0.4
2017-Mar-22 03:27N 39°08' E 015°17'1516.5
2017-Mar-22 02:33N 38°54' E 015°25'1616.5
2017-Mar-22 01:33N 38°39' E 015°33'1716.7
2017-Mar-22 00:33N 38°23' E 015°40'1414.0
2017-Mar-21 23:33N 38°09' E 015°36'1615.5
2017-Mar-21 22:34N 37°55' E 015°28'1716.5
2017-Mar-21 21:33N 37°41' E 015°18'1515.4
2017-Mar-21 20:32N 37°28' E 015°07'2 0.3
2017-Mar-21 11:26N 37°30' E 015°06'0 0.0
2017-Mar-21 10:13N 37°30' E 015°06'4 6.2
2017-Mar-21 09:32N 37°29' E 015°11'1616.3
2017-Mar-21 08:34N 37°43' E 015°20'1616.2
2017-Mar-21 07:33N 37°58' E 015°29'1717.3
2017-Mar-21 06:34N 38°14' E 015°36'1414.1
2017-Mar-21 05:33N 38°28' E 015°36'1716.4
2017-Mar-21 04:33N 38°44' E 015°28'1716.6
2017-Mar-21 03:32N 38°59' E 015°21'14 0.3
2017-Mar-19 05:12N 39°13' E 015°16'1116.6
2017-Mar-19 04:32N 39°02' E 015°21'1616.5
2017-Mar-19 03:33N 38°47' E 015°28'1716.8
2017-Mar-19 02:33N 38°32' E 015°36'1616.1
2017-Mar-19 01:33N 38°16' E 015°41'1514.7
2017-Mar-19 00:34N 38°03' E 015°33'1716.7
2017-Mar-18 23:33N 37°48' E 015°23'1716.9
2017-Mar-18 22:33N 37°33' E 015°13'7 1.0
2017-Mar-18 15:33N 37°30' E 015°06'0 0.2
2017-Mar-18 14:32N 37°29' E 015°06'0 0.0
2017-Mar-18 13:32N 37°29' E 015°06'3 1.2
2017-Mar-18 10:32N 37°29' E 015°10'1616.3
2017-Mar-18 09:34N 37°43' E 015°19'1616.5
2017-Mar-18 08:33N 37°58' E 015°28'1717.0
2017-Mar-18 07:33N 38°14' E 015°36'1514.7
2017-Mar-18 06:33N 38°28' E 015°36'1616.5
2017-Mar-18 05:33N 38°44' E 015°28'1716.7
2017-Mar-18 04:31N 38°60' E 015°21'19 0.9
2017-Mar-17 07:12N 39°18' E 015°13'1218.2
2017-Mar-17 06:33N 39°07' E 015°18'1818.2
2017-Mar-17 05:33N 38°50' E 015°27'1818.0
2017-Mar-17 04:34N 38°34' E 015°36'1717.0
2017-Mar-17 03:33N 38°18' E 015°42'1616.1
2017-Mar-17 02:34N 38°03' E 015°33'1818.2
2017-Mar-17 01:33N 37°47' E 015°22'1817.5
2017-Mar-17 00:31N 37°31' E 015°12'3 0.2
2017-Mar-16 11:26N 37°29' E 015°10'1516.6
2017-Mar-16 10:34N 37°41' E 015°19'1616.4
2017-Mar-16 09:33N 37°56' E 015°27'  

Dump ship's entire track history